x

Northwestern Hawaii Two - 190nm Nw Of Kauai Is, Hi (51101) Wave Buoy

3:50pm - Thu 25th Dec 2014 All times are HST. -10 hours from GMT.

  • Sig Wave height 11.2ft
  • Swell Direction
  • Peak Period 10s
  • Average Period 7s
  • Wind
    22mph, 27mph gusts
  • Sea Temp 76°f
  • Air Temp 71°f
  • Sea Pressure 1008.2mb
  • Northwestern Hawaii Two - 190nm Nw Of Kauai Is, Hi
  • Northwestern Hawaii Two - 190nm Nw Of Kauai Is, Hi

More Historic Weather Station data

Upgrade to MSW Pro to gain access to the past 30 days of data for over 8000 Wavebouys and Weather Stations around the globe.

Join Pro

Comparision Forecast

View Surf forecast
   
Thu 12/25 3:50pm 11ft 10s 7s 22 27 mph 1008.2mb 76f 71f
2:50pm 11ft 10s 7s 22 29 mph 1008.1mb 76f 71f
1:50pm 10.5ft 9s 7s 22 27 mph 1008.4mb 76f 71f
12:50pm 10ft 11s 7s 22 27 mph 1009.3mb 76f 71f
11:50am 11ft 11s 7s 22 27 mph 1010.1mb 76f 71f
10:50am 12.5ft 11s 7s 22 27 mph 1010.8mb 76f 71f
9:50am 11.5ft 11s 7s 22 29 mph 1010.8mb 76f 71f
8:50am 12ft 11s 8s 25 29 mph 1010.7mb 76f 71f
7:50am 11.5ft 11s 7s 22 27 mph 1010.3mb 76f 71f
6:50am 13.5ft 11s 8s 25 31 mph 1009.7mb 76f 71f
5:50am 13ft 11s 8s 25 29 mph 1009.3mb 76f 71f
4:50am 12.5ft 11s 8s 25 31 mph 1009.1mb 76f 71f
3:50am 13.5ft 11s 8s 25 29 mph 1009.2mb 76f 71f
2:50am 12ft 12s 8s 22 29 mph 1009.6mb 76f 71f
1:50am 14ft 11s 8s 22 29 mph 1009.6mb 76f 71f
12:50am 14.5ft 11s 8s 22 25 mph 1010.2mb 76f 70f
Wed 12/24 11:50pm 15ft 11s 8s 22 29 mph 1011mb 76f 70f
10:50pm 15.5ft 11s 9s 25 31 mph 1011.2mb 76f 70f
9:50pm 15ft 11s 8s 22 29 mph 1011.5mb 76f 71f
8:50pm 15.5ft 11s 8s 22 29 mph 1011.4mb 76f 70f
7:50pm 16ft 11s 8s 27 36 mph 1011.2mb 76f 70f
6:50pm 15.5ft 11s 8s 22 27 mph 1010.9mb 76f 71f
5:50pm 14.5ft 11s 8s 25 31 mph 1010.7mb 76f 69f
4:50pm 15.5ft 11s 8s 27 31 mph 1010.6mb 76f 69f
3:50pm 14.5ft 11s 8s 27 31 mph 1010.5mb 76f 70f
2:50pm 15.5ft 11s 8s 25 31 mph 1010.7mb 76f 69f
1:50pm 16.5ft 11s 9s 25 31 mph 1011.2mb 76f 69f
12:50pm 15ft 11s 8s 25 31 mph 1012.3mb 76f 70f
11:50am 15ft 10s 8s 27 31 mph 1013.3mb 76f 70f
10:50am 15ft 11s 8s 27 31 mph 1014.2mb 76f 71f
9:50am 15.5ft 11s 8s 27 34 mph 1014.6mb 76f 71f
8:50am 15.5ft 10s 8s 27 34 mph 1014.2mb 76f 70f
7:50am 15ft 11s 8s 29 36 mph 1013.7mb 76f 70f
6:50am 15.5ft 10s 8s 29 40 mph 1013.4mb 76f 70f
5:50am 16.5ft 10s 8s 27 36 mph 1013.6mb 76f 69f
4:50am 16.5ft 10s 8s 31 40 mph 1013.6mb 76f 69f
3:50am 17.5ft 11s 8s 29 36 mph 1013.8mb 76f 69f
2:50am 16.5ft 10s 8s 31 43 mph 1014.3mb 76f 70f
1:50am 16.5ft 11s 8s 29 36 mph 1015.3mb 76f 70f
12:50am 17.5ft 10s 8s 31 40 mph 1015.8mb 76f 69f
Tue 12/23 11:50pm 15ft 10s 8s 31 38 mph 1016.4mb 76f 69f
10:50pm 16.5ft 10s 8s 31 40 mph 1016.9mb 76f 69f
9:50pm 15.5ft 9s 8s 31 36 mph 1017mb 76f 69f
8:50pm 15.5ft 10s 8s 31 38 mph 1017.2mb 76f 69f
7:50pm 16ft 13s 8s 29 36 mph 1017mb 76f 69f
6:50pm 15.5ft 9s 8s 31 36 mph 1017mb 76f 68f
5:50pm 15ft 13s 8s 29 40 mph 1016.9mb 76f 66f
4:50pm 14.5ft 10s 8s 31 36 mph 1016.7mb 76f 69f
3:50pm 15.5ft 9s 8s 31 38 mph 1016.9mb 76f 69f
2:50pm 14ft 13s 8s 29 36 mph 1017.3mb 76f 68f
1:50pm 14.5ft 13s 8s 31 40 mph 1017.9mb 76f 67f
12:50pm 15ft 13s 8s 29 36 mph 1018.9mb 76f 68f
11:50am 13ft 8s 8s 27 34 mph 1020.1mb 76f 68f
10:50am 13ft 14s 8s 29 38 mph 1020.6mb 76f 68f
9:50am 13.5ft 14s 8s 29 36 mph 1021mb 76f 67f
8:50am 14ft 13s 8s 29 36 mph 1020.7mb 76f 68f
7:50am 12.5ft 14s 8s 27 34 mph 1020.7mb 76f 67f
6:50am 13.5ft 14s 8s 27 34 mph 1020.6mb 76f 67f
5:50am 13.5ft 12s 8s 27 38 mph 1020.6mb 76f 67f
4:50am 12.5ft 10s 8s 27 34 mph 1020.5mb 76f 68f
3:50am 13.5ft 14s 8s 25 31 mph 1021.1mb 76f 68f
2:50am 13.5ft 14s 8s 25 31 mph 1021.5mb 76f 68f
1:50am 12.5ft 11s 8s 27 31 mph 1021.4mb 76f 69f
12:50am 13ft 14s 8s 25 29 mph 1021.9mb 76f 69f
Mon 12/22 11:50pm 14ft 15s 8s 27 34 mph 1021.7mb 76f 69f
10:50pm 14ft 15s 8s 27 38 mph 1021.9mb 76f 68f
9:50pm 13ft 14s 8s 25 29 mph 1021.9mb 76f 69f
8:50pm 13.5ft 15s 8s 25 29 mph 1022.1mb 76f 69f
7:50pm 12.5ft 15s 8s 22 27 mph 1021.9mb 76f 69f
6:50pm 13ft 15s 8s 22 29 mph 1021.4mb 76f 69f
5:50pm 14ft 15s 8s 22 27 mph 1020.9mb 76f 69f
4:50pm 13ft 15s 8s 25 31 mph 1020.4mb 76f 68f
3:50pm 13ft 14s 8s 27 31 mph 1019.6mb 76f 69f
2:50pm 12.5ft 15s 8s 22 29 mph 1019.6mb 76f 69f
1:50pm 12ft 15s 8s 25 31 mph 1019.7mb 76f 69f
12:50pm 12ft 14s 8s 22 27 mph 1020.3mb 76f 69f
11:50am 12.5ft 15s 8s 20 25 mph 1020.8mb 76f 69f
10:50am 13ft 16s 9s 20 27 mph 1022.3mb 77f 69f
9:50am 12.5ft 16s 8s 22 27 mph 1021.9mb 76f 67f
8:50am 12ft 14s 8s 25 27 mph 1021.8mb 76f 68f
7:50am 13ft 16s 9s 25 29 mph 1020.9mb 76f 69f
6:50am 13.5ft 16s 8s 22 25 mph 1020.6mb 76f 69f
5:50am 15.5ft 16s 10s 20 29 mph 1020.5mb 76f 69f
4:50am 12.5ft 15s 8s 20 25 mph 1020mb 76f 70f
3:50am 13.5ft 16s 8s 18 22 mph 1019.9mb 76f 70f